createdAt,value
2017-12-01T11:33:43.338Z,0
2017-12-01T11:34:44.736Z,0
2017-12-01T11:36:06.218Z,0
2017-12-01T11:37:07.615Z,0
2017-12-01T11:38:09.014Z,0
2017-12-01T11:39:10.416Z,0
2017-12-01T11:40:11.817Z,0
2017-12-01T11:41:13.219Z,0
2017-12-01T11:53:03.257Z,180
2017-12-01T11:54:04.663Z,180
2017-12-01T11:55:26.620Z,150
2017-12-01T11:56:28.065Z,100
2017-12-01T11:57:29.676Z,135
2017-12-01T11:58:31.081Z,135
2017-12-01T11:59:32.487Z,130
2017-12-01T12:00:34.202Z,140
2017-12-01T12:01:35.605Z,145
2017-12-01T12:02:37.013Z,150
2017-12-01T12:03:38.519Z,145
2017-12-01T12:04:39.919Z,140
2017-12-01T12:05:41.331Z,140
2017-12-01T12:06:42.839Z,140
2017-12-01T12:07:44.245Z,140
2017-12-01T12:08:45.652Z,135
2017-12-01T12:09:47.163Z,145
2017-12-01T12:10:48.566Z,150
2017-12-01T12:11:50.330Z,145
2017-12-01T12:12:51.751Z,145
2017-12-01T12:13:53.134Z,150
2017-12-01T12:14:54.770Z,155
2017-12-01T12:15:56.178Z,160
2017-12-01T12:16:57.585Z,170
2017-12-01T12:17:59.099Z,180
2017-12-01T12:19:00.503Z,175
2017-12-01T12:20:02.177Z,175
2017-12-01T12:21:03.591Z,165
2017-12-01T12:22:05.269Z,160
2017-12-01T12:23:06.676Z,155
2017-12-01T12:24:08.426Z,155
2017-12-01T12:25:09.838Z,160
2017-12-01T12:26:11.438Z,170
2017-12-01T12:27:12.919Z,175
2017-12-01T12:28:14.522Z,170
2017-12-01T12:29:15.930Z,165
2017-12-01T12:30:17.607Z,160
2017-12-01T12:31:19.021Z,160
2017-12-01T12:32:20.694Z,150
2017-12-01T12:33:22.099Z,135
2017-12-01T12:34:23.802Z,130
2017-12-01T12:35:25.209Z,130
2017-12-01T12:36:26.864Z,135
2017-12-01T12:37:28.270Z,135
2017-12-01T12:38:29.948Z,135
2017-12-01T12:39:31.355Z,135
2017-12-01T12:40:32.756Z,135
2017-12-01T12:41:34.270Z,130
2017-12-01T12:42:35.674Z,130
2017-12-01T12:43:37.085Z,125
2017-12-01T12:44:38.591Z,120
2017-12-01T12:45:40.001Z,125
2017-12-01T12:46:41.402Z,130
2017-12-01T12:47:42.912Z,130
2017-12-01T12:48:44.317Z,135
2017-12-01T12:49:45.724Z,135
2017-12-01T12:50:47.235Z,135
2017-12-01T12:51:48.638Z,135
2017-12-01T12:52:50.043Z,135
2017-12-01T12:53:51.554Z,135
2017-12-01T12:54:52.959Z,130
2017-12-01T12:55:54.360Z,135
2017-12-01T12:56:55.879Z,130
2017-12-01T12:57:57.285Z,135
2017-12-01T12:58:58.687Z,130
2017-12-01T13:00:00.200Z,130
2017-12-01T13:01:01.602Z,125
2017-12-01T13:02:03.296Z,120
2017-12-01T13:03:04.686Z,115
2017-12-01T13:04:06.388Z,110
2017-12-01T13:05:07.768Z,110
2017-12-01T13:06:09.454Z,110
2017-12-01T13:07:10.913Z,110
2017-12-01T13:08:12.350Z,110
2017-12-01T13:09:13.745Z,110
2017-12-01T13:10:15.417Z,110
2017-12-01T13:11:16.826Z,115
2017-12-01T13:12:18.504Z,115
2017-12-01T13:13:19.907Z,115
2017-12-01T13:14:21.588Z,120
2017-12-01T13:15:22.991Z,125
2017-12-01T13:16:24.675Z,135
2017-12-01T13:17:26.078Z,130
2017-12-01T13:18:27.564Z,125
2017-12-01T13:19:28.967Z,120
2017-12-01T13:20:30.641Z,120
2017-12-01T13:21:32.044Z,120
2017-12-01T13:22:33.727Z,120
2017-12-01T13:23:35.130Z,125
2017-12-01T13:24:37.226Z,130
2017-12-01T13:25:38.632Z,125
2017-12-01T13:26:40.307Z,125
2017-12-01T13:27:41.712Z,125
2017-12-01T13:28:43.393Z,125
2017-12-01T13:29:44.794Z,125
2017-12-01T13:30:46.479Z,130
2017-12-01T13:31:47.880Z,130
2017-12-01T13:32:49.566Z,130
2017-12-01T13:33:51.393Z,135
2017-12-01T13:34:53.060Z,130
2017-12-01T13:35:54.465Z,125
2017-12-01T13:36:56.145Z,115
2017-12-01T13:37:57.572Z,105
2017-12-01T13:38:59.230Z,105
2017-12-01T13:40:00.630Z,95
2017-12-01T13:41:02.314Z,90
2017-12-01T13:42:03.821Z,90
2017-12-01T13:43:05.404Z,90
2017-12-01T13:44:06.802Z,90
2017-12-01T13:45:08.207Z,90
2017-12-01T13:46:09.718Z,90
2017-12-01T13:47:11.126Z,90
2017-12-01T13:48:12.532Z,95
2017-12-01T13:49:14.045Z,100
2017-12-01T13:50:15.450Z,95
2017-12-01T13:51:16.845Z,100
2017-12-01T13:52:18.365Z,100
2017-12-01T13:53:19.765Z,100
2017-12-01T13:54:21.170Z,100
2017-12-01T13:55:23.711Z,100
2017-12-01T13:56:25.113Z,95
2017-12-01T13:57:26.517Z,90
2017-12-01T13:58:28.030Z,90
2017-12-01T13:59:29.433Z,90
2017-12-01T14:00:30.857Z,90
2017-12-01T14:01:32.350Z,85
2017-12-01T14:02:33.753Z,80
2017-12-01T14:03:35.158Z,80
2017-12-01T14:04:36.671Z,80
2017-12-01T14:05:38.072Z,75
2017-12-01T14:06:39.472Z,70
2017-12-01T14:07:41.003Z,70
2017-12-01T14:08:42.395Z,70
2017-12-01T14:09:43.796Z,70
2017-12-01T14:10:45.312Z,70
2017-12-01T14:11:46.716Z,70
2017-12-01T14:12:48.120Z,70
2017-12-01T14:13:49.634Z,65
2017-12-01T14:14:51.038Z,65
2017-12-01T14:15:52.439Z,65
2017-12-01T14:16:53.958Z,60
2017-12-01T14:17:55.360Z,60
2017-12-01T14:18:57.042Z,60
2017-12-01T14:19:58.441Z,60
2017-12-01T14:20:59.846Z,60
2017-12-01T14:22:01.363Z,60
2017-12-01T14:23:02.763Z,60
2017-12-01T14:24:04.202Z,55
2017-12-01T14:25:05.933Z,55
2017-12-01T14:26:07.292Z,55
2017-12-01T14:27:08.973Z,55
2017-12-01T14:28:10.382Z,55
2017-12-01T14:29:12.066Z,55
2017-12-01T14:30:13.461Z,55
2017-12-01T14:31:14.942Z,55
2017-12-01T14:32:16.345Z,55
2017-12-01T14:33:17.823Z,55
2017-12-01T14:34:19.221Z,50
2017-12-01T14:35:20.701Z,50
2017-12-01T14:36:22.104Z,50
2017-12-01T14:37:23.583Z,45
2017-12-01T14:38:24.987Z,45
2017-12-01T14:39:26.463Z,45
2017-12-01T14:40:27.867Z,40
2017-12-01T14:41:29.344Z,40
2017-12-01T14:42:30.758Z,40
2017-12-01T14:43:32.225Z,40
2017-12-01T14:44:33.628Z,35
2017-12-01T14:45:35.109Z,35
2017-12-01T14:46:36.524Z,35
2017-12-01T14:47:37.987Z,30
2017-12-01T14:48:39.385Z,30
2017-12-01T14:49:40.867Z,30
2017-12-01T14:50:42.271Z,30
2017-12-01T14:51:43.671Z,30
2017-12-01T14:52:45.086Z,30
2017-12-01T14:53:46.490Z,30
2017-12-01T14:54:47.894Z,30
2017-12-01T14:55:49.407Z,25
2017-12-01T14:56:50.805Z,25
2017-12-01T14:57:52.288Z,25
2017-12-01T14:58:53.687Z,25
2017-12-01T14:59:55.180Z,25
2017-12-01T15:00:56.583Z,20
2017-12-01T15:01:58.069Z,20
2017-12-01T15:02:59.472Z,20
2017-12-01T15:04:00.929Z,20
2017-12-01T15:05:02.330Z,20
2017-12-01T15:06:03.809Z,20
2017-12-01T15:07:05.340Z,20
2017-12-01T15:08:06.793Z,15
2017-12-01T15:09:08.198Z,15
2017-12-01T15:10:09.712Z,15
2017-12-01T15:11:11.075Z,15
2017-12-01T15:12:12.476Z,15
2017-12-01T15:13:13.894Z,10
2017-12-01T15:14:15.295Z,10
2017-12-01T15:15:16.700Z,10
2017-12-01T15:16:18.213Z,10
2017-12-01T15:17:19.613Z,10
2017-12-01T15:18:21.095Z,10
2017-12-01T15:19:22.496Z,10
2017-12-01T15:20:23.974Z,5
2017-12-01T15:21:25.383Z,5
2017-12-01T15:22:26.856Z,5
2017-12-01T15:23:28.257Z,5
2017-12-01T15:24:29.734Z,5
2017-12-01T15:25:31.136Z,5
2017-12-01T15:26:32.615Z,5
2017-12-01T15:27:34.017Z,5
2017-12-01T15:28:35.516Z,0
2017-12-01T15:29:36.902Z,0
2017-12-01T15:30:38.383Z,0
2017-12-01T15:31:39.779Z,0
2017-12-01T15:32:41.306Z,0
2017-12-01T15:33:42.660Z,0
2017-12-01T15:34:44.139Z,0
2017-12-01T15:35:45.538Z,0
2017-12-01T15:36:46.936Z,0
2017-12-01T15:37:48.357Z,0
2017-12-01T15:38:49.765Z,0
2017-12-01T15:39:51.161Z,0
2017-12-01T15:40:52.677Z,0
2017-12-01T15:41:54.107Z,0
2017-12-01T15:42:55.541Z,0
2017-12-01T15:43:57.000Z,0
2017-12-01T15:44:58.424Z,0
2017-12-01T15:45:59.821Z,0
2017-12-01T15:47:01.319Z,0
2017-12-01T15:48:02.718Z,0
2017-12-01T15:49:04.117Z,0
2017-12-01T15:50:05.540Z,0
2017-12-01T15:51:06.938Z,0
2017-12-01T15:52:08.354Z,0
2017-12-01T15:53:09.777Z,0
2017-12-01T15:54:11.155Z,0
2017-12-01T15:55:12.574Z,0
2017-12-01T15:56:14.999Z,0
2017-12-01T15:57:16.403Z,0
2017-12-01T15:58:17.882Z,0
2017-12-01T15:59:19.280Z,0
2017-12-01T16:00:20.762Z,0
2017-12-01T16:01:22.158Z,0
2017-12-01T16:02:23.649Z,0
2017-12-01T16:03:25.050Z,0
2017-12-01T16:04:26.526Z,0
2017-12-01T16:05:27.918Z,0
2017-12-01T16:06:30.445Z,0
2017-12-01T16:07:31.843Z,0
2017-12-01T16:08:33.308Z,0
2017-12-01T16:09:34.711Z,0
2017-12-01T16:10:36.197Z,0
2017-12-01T16:11:37.581Z,0
2017-12-01T16:12:39.020Z,0
2017-12-01T16:13:40.510Z,0
2017-12-01T16:14:41.905Z,0
2017-12-01T16:15:43.308Z,0
2017-12-01T16:16:44.729Z,0
2017-12-01T16:17:46.125Z,0
2017-12-01T16:18:47.524Z,0
2017-12-01T16:19:48.959Z,0
2017-12-01T16:20:50.359Z,0
2017-12-01T16:21:51.755Z,0
2017-12-01T16:22:53.168Z,0
2017-12-01T16:23:54.567Z,0
2017-12-01T16:24:56.047Z,0
2017-12-01T16:25:57.455Z,0
2017-12-01T16:26:58.927Z,0
2017-12-01T16:28:00.329Z,0
2017-12-01T16:29:01.808Z,0
2017-12-01T16:30:03.204Z,0
2017-12-01T16:31:04.690Z,0
2017-12-01T16:32:06.090Z,0
2017-12-01T16:33:08.496Z,0
2017-12-01T16:34:09.017Z,0
2017-12-01T16:35:10.452Z,0
2017-12-01T16:36:11.847Z,0
2017-12-01T16:37:13.249Z,0
2017-12-01T16:38:14.671Z,0
2017-12-01T16:39:16.070Z,0
2017-12-01T16:40:17.468Z,0
2017-12-01T16:41:20.278Z,0
2017-12-01T16:42:21.677Z,0
2017-12-01T16:43:24.098Z,0
2017-12-01T16:44:25.492Z,0
2017-12-01T16:45:26.904Z,0
2017-12-01T16:46:28.303Z,0
2017-12-01T16:47:29.707Z,0
2017-12-01T16:48:31.121Z,0
2017-12-01T16:49:32.520Z,0
2017-12-01T16:50:33.920Z,0
2017-12-01T16:51:36.367Z,0
2017-12-01T16:52:52.722Z,0
2017-12-01T16:53:54.121Z,0
2017-12-01T16:54:55.538Z,0
2017-12-01T16:55:56.932Z,0
2017-12-01T16:56:58.332Z,0
2017-12-01T16:57:59.756Z,0
2017-12-01T16:59:01.154Z,0
2017-12-01T17:00:02.552Z,0
2017-12-01T17:01:04.029Z,0
2017-12-01T17:02:05.431Z,0
2017-12-01T17:03:06.855Z,0
2017-12-01T17:04:08.293Z,0
2017-12-01T17:05:09.690Z,0
2017-12-01T17:06:11.092Z,0
2017-12-01T17:07:12.511Z,0
2017-12-01T17:08:13.908Z,0
2017-12-01T17:09:15.310Z,0
2017-12-01T17:10:17.753Z,0
2017-12-01T17:11:19.159Z,0
2017-12-01T17:12:20.553Z,0
2017-12-01T17:13:21.971Z,0
2017-12-01T17:14:23.371Z,0
2017-12-01T17:15:24.853Z,0
2017-12-01T17:16:26.254Z,0
2017-12-01T17:17:27.650Z,0
2017-12-01T17:18:29.073Z,0
2017-12-01T17:19:30.472Z,0
2017-12-01T17:20:31.872Z,0
2017-12-01T17:21:33.295Z,0
2017-12-01T17:22:34.691Z,0
2017-12-01T17:23:36.172Z,0
2017-12-01T17:24:37.609Z,0
2017-12-01T17:25:39.052Z,0
2017-12-01T17:26:40.452Z,0
2017-12-01T17:27:41.851Z,0
2017-12-01T17:28:43.272Z,0
2017-12-01T17:29:44.672Z,0
2017-12-01T17:30:46.076Z,0
2017-12-01T17:31:47.489Z,0
2017-12-01T17:32:48.892Z,0
2017-12-01T17:33:50.371Z,0
2017-12-01T17:34:51.773Z,0
2017-12-01T17:35:53.251Z,0
2017-12-01T17:36:54.651Z,0
2017-12-01T17:37:56.054Z,0
2017-12-01T17:38:58.496Z,0
2017-12-01T17:39:59.897Z,0
2017-12-01T17:41:01.293Z,0
2017-12-01T17:42:02.713Z,0
2017-12-01T17:43:04.113Z,0
2017-12-01T17:44:05.593Z,0
2017-12-01T17:45:06.993Z,0
2017-12-01T17:46:08.472Z,0
2017-12-01T17:47:09.876Z,0
2017-12-01T17:48:12.177Z,0
2017-12-01T17:49:13.614Z,0
2017-12-01T17:50:15.013Z,0
2017-12-01T17:51:16.417Z,0
2017-12-01T17:52:17.834Z,0
2017-12-01T17:53:19.231Z,0
2017-12-01T17:54:20.632Z,0
2017-12-01T17:55:22.058Z,0
2017-12-01T17:56:23.455Z,0
2017-12-01T17:57:24.851Z,0
2017-12-01T17:58:26.270Z,0
2017-12-01T17:59:27.710Z,0
2017-12-01T18:00:29.110Z,0
2017-12-01T18:01:31.617Z,0
2017-12-01T18:02:33.088Z,0
2017-12-01T18:03:34.481Z,0
2017-12-01T18:04:35.938Z,0
2017-12-01T18:05:37.335Z,0
2017-12-01T18:06:41.249Z,0
2017-12-01T18:07:42.640Z,0
2017-12-01T18:08:44.040Z,0
2017-12-01T18:09:46.523Z,0
2017-12-01T18:10:54.718Z,0
2017-12-01T18:11:56.116Z,0
2017-12-01T18:12:57.616Z,0
2017-12-01T18:13:58.997Z,0
2017-12-01T18:15:00.397Z,0
2017-12-01T18:16:01.835Z,0
2017-12-01T18:17:03.250Z,0
2017-12-01T18:18:04.647Z,0
2017-12-01T18:19:06.139Z,0
2017-12-01T18:20:07.536Z,0
2017-12-01T18:21:08.953Z,0
2017-12-01T18:22:10.461Z,0
2017-12-01T18:23:11.858Z,0
2017-12-01T18:24:13.259Z,0
2017-12-01T18:25:15.701Z,0
2017-12-01T18:26:17.099Z,0
2017-12-01T18:27:18.583Z,0
2017-12-01T18:28:19.983Z,0
2017-12-01T18:29:21.381Z,0
2017-12-01T18:30:22.804Z,0
2017-12-01T18:31:24.207Z,0
2017-12-01T18:32:25.599Z,0
2017-12-01T18:33:27.023Z,0
2017-12-01T18:34:28.417Z,0
2017-12-01T18:35:29.901Z,0
2017-12-01T18:36:31.387Z,0
2017-12-01T18:37:32.913Z,0
2017-12-01T18:38:34.309Z,0
2017-12-01T18:39:35.765Z,0
2017-12-01T18:40:37.164Z,0
2017-12-01T18:41:38.645Z,0
2017-12-01T18:42:40.108Z,0
2017-12-01T18:43:41.528Z,0
2017-12-01T18:44:42.926Z,0
2017-12-01T18:45:44.406Z,0
2017-12-01T18:46:45.805Z,0
2017-12-01T18:47:47.287Z,0
2017-12-01T18:48:48.687Z,0
2017-12-01T18:49:50.086Z,0
2017-12-01T18:50:51.624Z,0
2017-12-01T18:51:53.033Z,0
2017-12-01T18:52:54.436Z,0
2017-12-01T18:53:55.931Z,0
2017-12-01T18:54:57.327Z,0
2017-12-01T18:55:58.810Z,0
2017-12-01T18:57:00.208Z,0
2017-12-01T18:58:01.646Z,0
2017-12-01T18:59:03.132Z,0
2017-12-01T19:00:04.533Z,0
2017-12-01T19:01:05.924Z,0
2017-12-01T19:02:07.350Z,0
2017-12-01T19:03:08.778Z,0
2017-12-01T19:04:10.175Z,0
2017-12-01T19:05:11.670Z,0
2017-12-01T19:06:13.078Z,0
2017-12-01T19:07:14.468Z,0
2017-12-01T19:08:15.891Z,0
2017-12-01T19:09:17.290Z,0
2017-12-01T19:10:18.689Z,0
2017-12-01T19:11:20.108Z,0
2017-12-01T19:12:21.509Z,0
2017-12-01T19:13:22.907Z,0
2017-12-01T19:14:24.328Z,0
2017-12-01T19:15:25.727Z,0
2017-12-01T19:16:27.124Z,0
2017-12-01T19:17:28.548Z,0
2017-12-01T19:18:29.945Z,0
2017-12-01T19:19:31.356Z,0
2017-12-01T19:20:32.909Z,0
2017-12-01T19:21:34.266Z,0
2017-12-01T19:22:36.116Z,0
2017-12-01T19:23:37.599Z,0
2017-12-01T19:24:38.995Z,0
2017-12-01T19:25:40.478Z,0
2017-12-01T19:26:41.880Z,0
2017-12-01T19:27:43.361Z,0
2017-12-01T19:28:44.759Z,0
2017-12-01T19:29:46.253Z,0
2017-12-01T19:30:47.658Z,0
2017-12-01T19:31:49.123Z,0
2017-12-01T19:32:50.522Z,0
2017-12-01T19:33:52.006Z,0
2017-12-01T19:34:53.403Z,0
2017-12-01T19:35:54.807Z,0
2017-12-01T19:36:56.220Z,0
2017-12-01T19:37:57.627Z,0
2017-12-01T19:38:59.023Z,0
2017-12-01T19:40:00.462Z,0
2017-12-01T19:41:01.858Z,0
2017-12-01T19:42:03.321Z,0
2017-12-01T19:43:04.722Z,0
2017-12-01T19:44:06.202Z,0
2017-12-01T19:45:07.601Z,0
2017-12-01T19:46:09.084Z,0
2017-12-01T19:47:10.480Z,0
2017-12-01T19:48:11.981Z,0
2017-12-01T19:49:13.379Z,0
2017-12-01T19:50:14.843Z,0
2017-12-01T19:51:16.244Z,0
2017-12-01T19:52:17.723Z,0
2017-12-01T19:53:19.128Z,0
2017-12-01T19:54:20.604Z,0
2017-12-01T19:55:22.009Z,0
2017-12-01T19:56:23.485Z,0
2017-12-01T19:57:24.885Z,0
2017-12-01T19:58:26.370Z,0
2017-12-01T19:59:27.772Z,0
2017-12-01T20:00:29.170Z,0
2017-12-01T20:01:30.591Z,0
2017-12-01T20:02:31.991Z,0
2017-12-01T20:03:33.394Z,0
2017-12-01T20:04:34.911Z,0
2017-12-01T20:05:36.312Z,0
2017-12-01T20:06:37.710Z,0
2017-12-01T20:07:39.543Z,0
2017-12-01T20:08:40.942Z,0
2017-12-01T20:09:42.376Z,0
2017-12-01T20:10:45.802Z,0
2017-12-01T20:11:47.207Z,0
2017-12-01T20:12:48.725Z,0
2017-12-01T20:13:50.089Z,0
2017-12-01T20:14:51.568Z,0
2017-12-01T20:15:52.971Z,0
2017-12-01T20:16:54.449Z,0
2017-12-01T20:17:55.845Z,0
2017-12-01T20:18:57.325Z,0
2017-12-01T20:19:58.719Z,0
2017-12-01T20:21:00.208Z,0
2017-12-01T20:22:01.608Z,0
2017-12-01T20:23:03.086Z,0
2017-12-01T20:24:04.488Z,0
2017-12-01T20:25:05.877Z,0
2017-12-01T20:26:07.306Z,0
2017-12-01T20:27:08.699Z,0
2017-12-01T20:28:10.097Z,0
2017-12-01T20:29:11.524Z,0
2017-12-01T20:30:12.919Z,0
2017-12-01T20:31:14.316Z,0
2017-12-01T20:32:15.776Z,0
2017-12-01T20:33:17.173Z,0
2017-12-01T20:34:18.568Z,0
2017-12-01T20:35:20.067Z,0
2017-12-01T20:36:21.472Z,0
2017-12-01T20:37:22.858Z,0
2017-12-01T20:38:24.285Z,0
2017-12-01T20:39:25.686Z,0
2017-12-01T20:40:27.083Z,0
2017-12-01T20:41:28.501Z,0
2017-12-01T20:42:29.899Z,0
2017-12-01T20:43:31.295Z,0
2017-12-01T20:44:32.719Z,0
2017-12-01T20:45:34.814Z,0
2017-12-01T20:46:36.315Z,0
2017-12-01T20:47:37.712Z,0
2017-12-01T20:48:39.199Z,0
2017-12-01T20:49:40.604Z,0
2017-12-01T20:50:41.993Z,0
2017-12-01T20:51:43.416Z,0
2017-12-01T20:52:44.814Z,0
2017-12-01T20:53:46.212Z,0
2017-12-01T20:54:47.636Z,0
2017-12-01T20:55:49.030Z,0
2017-12-01T20:56:50.520Z,0
2017-12-01T20:57:51.914Z,0
2017-12-01T20:58:53.397Z,0
2017-12-01T20:59:54.794Z,0
2017-12-01T21:00:56.188Z,0
2017-12-01T21:01:57.624Z,0
2017-12-01T21:02:59.061Z,0
2017-12-01T21:04:00.456Z,0
2017-12-01T21:05:01.942Z,0
2017-12-01T21:06:03.344Z,0
2017-12-01T21:07:04.742Z,0
2017-12-01T21:08:06.259Z,0
2017-12-01T21:09:07.654Z,0
2017-12-01T21:10:09.049Z,0
2017-12-01T21:11:10.477Z,0
2017-12-01T21:12:11.873Z,0
2017-12-01T21:13:13.357Z,0
2017-12-01T21:14:14.772Z,0
2017-12-01T21:15:17.262Z,0
2017-12-01T21:16:18.658Z,0
2017-12-01T21:17:20.144Z,0
2017-12-01T21:18:21.539Z,0
2017-12-01T21:19:24.051Z,0
2017-12-01T21:20:25.446Z,0
2017-12-01T21:21:26.928Z,0
2017-12-01T21:22:28.326Z,0
2017-12-01T21:23:29.808Z,0
2017-12-01T21:24:31.207Z,0
2017-12-01T21:25:32.600Z,0
2017-12-01T21:26:34.029Z,0
2017-12-01T21:27:35.760Z,0
2017-12-01T21:28:37.158Z,0
2017-12-01T21:29:38.721Z,0
2017-12-01T21:30:40.116Z,0
2017-12-01T21:31:41.506Z,0
2017-12-01T21:32:42.976Z,0
2017-12-01T21:33:44.372Z,0
2017-12-01T21:34:45.773Z,0
2017-12-01T21:35:47.197Z,0
2017-12-01T21:36:48.603Z,0
2017-12-01T21:37:50.074Z,0
2017-12-01T21:38:51.489Z,0
2017-12-01T21:39:54.571Z,0
2017-12-01T21:40:56.042Z,0
2017-12-01T21:41:58.500Z,0
2017-12-01T21:42:59.899Z,0
2017-12-01T21:44:01.387Z,0
2017-12-01T21:45:03.714Z,0
2017-12-01T21:46:05.111Z,0
2017-12-01T21:47:13.203Z,0
2017-12-01T21:48:14.617Z,0
2017-12-01T21:49:16.015Z,0
2017-12-01T21:50:17.410Z,0
2017-12-01T21:51:55.688Z,0
2017-12-01T21:53:02.588Z,0
2017-12-01T21:54:05.594Z,0
2017-12-01T21:55:09.822Z,0
2017-12-01T21:56:16.438Z,0
2017-12-01T21:57:17.858Z,0
2017-12-01T21:58:19.759Z,0
2017-12-01T21:59:26.081Z,0
2017-12-01T22:00:29.634Z,0
2017-12-01T22:01:31.034Z,0
2017-12-01T22:02:32.431Z,0
2017-12-01T22:03:34.834Z,0
2017-12-01T22:04:36.233Z,0
2017-12-01T22:05:37.632Z,0
2017-12-01T22:06:39.033Z,0
2017-12-01T22:07:40.452Z,0
2017-12-01T22:08:41.849Z,0
2017-12-01T22:09:43.332Z,0
2017-12-01T22:10:44.730Z,0
2017-12-01T22:11:46.215Z,0
2017-12-01T22:12:47.611Z,0
2017-12-01T22:13:49.092Z,0
2017-12-01T22:14:50.490Z,0
2017-12-01T22:15:51.985Z,0
2017-12-01T22:16:53.379Z,0
2017-12-01T22:17:54.853Z,0
2017-12-01T22:18:56.251Z,0
2017-12-01T22:20:03.719Z,0
2017-12-01T22:21:08.404Z,0
2017-12-01T22:22:21.504Z,0
2017-12-01T22:23:22.986Z,0
2017-12-01T22:24:25.485Z,0
2017-12-01T22:25:29.786Z,0
2017-12-01T22:26:35.261Z,0
2017-12-01T22:27:38.568Z,0
2017-12-01T22:28:41.543Z,0
2017-12-01T22:29:42.896Z,0
2017-12-01T22:30:44.400Z,0
2017-12-01T22:31:45.797Z,0
2017-12-01T22:32:47.195Z,0
2017-12-01T22:33:48.612Z,0
2017-12-01T22:34:50.016Z,0
2017-12-01T22:35:51.416Z,0
2017-12-01T22:36:52.837Z,0
2017-12-01T22:37:54.233Z,0
2017-12-01T22:38:55.717Z,0
2017-12-01T22:39:57.117Z,0
2017-12-01T22:40:58.597Z,0
2017-12-01T22:41:59.995Z,0
2017-12-01T22:43:01.395Z,0
2017-12-01T22:44:02.925Z,0
2017-12-01T22:45:05.385Z,0
2017-12-01T22:46:06.531Z,0
2017-12-01T22:47:07.964Z,0
2017-12-01T22:48:09.500Z,0
2017-12-01T22:49:10.897Z,0
2017-12-01T22:50:18.445Z,0
2017-12-01T22:51:19.873Z,0
2017-12-01T22:52:21.266Z,0
2017-12-01T22:53:25.661Z,0
2017-12-01T22:54:27.062Z,0
2017-12-01T22:55:28.479Z,0
2017-12-01T22:56:29.940Z,0
2017-12-01T22:57:31.355Z,0
2017-12-01T22:58:32.772Z,0
2017-12-01T22:59:34.263Z,0
2017-12-01T23:00:35.669Z,0
2017-12-01T23:01:43.590Z,0
2017-12-01T23:02:51.088Z,0
2017-12-01T23:03:53.029Z,0
2017-12-01T23:04:54.435Z,0
2017-12-01T23:05:55.908Z,0
2017-12-01T23:06:57.318Z,0
2017-12-01T23:07:58.706Z,0
2017-12-01T23:09:00.129Z,0
2017-12-01T23:10:01.673Z,0
2017-12-01T23:11:03.079Z,0
2017-12-01T23:12:04.551Z,0
2017-12-01T23:13:07.864Z,0
2017-12-01T23:14:09.380Z,0
2017-12-01T23:15:10.779Z,0
2017-12-01T23:16:12.182Z,0
2017-12-01T23:17:13.598Z,0
2017-12-01T23:18:15.009Z,0
2017-12-01T23:19:16.402Z,0
2017-12-01T23:20:17.917Z,0
2017-12-01T23:21:19.316Z,0
2017-12-01T23:22:20.718Z,0
2017-12-01T23:23:22.138Z,0
2017-12-01T23:24:23.546Z,0
2017-12-01T23:25:25.013Z,0
2017-12-01T23:26:26.430Z,0
2017-12-01T23:27:27.820Z,0
2017-12-01T23:28:29.473Z,0
2017-12-01T23:29:30.840Z,0
2017-12-01T23:30:32.240Z,0
2017-12-01T23:31:33.764Z,0
2017-12-01T23:32:35.164Z,0
2017-12-01T23:33:36.570Z,0
2017-12-01T23:34:39.107Z,0
2017-12-01T23:35:40.510Z,0
2017-12-01T23:36:41.909Z,0
2017-12-01T23:37:43.432Z,0
2017-12-01T23:38:44.839Z,0
2017-12-01T23:39:46.248Z,0
2017-12-01T23:40:47.749Z,0
2017-12-01T23:41:49.152Z,0
2017-12-01T23:42:50.552Z,0
2017-12-01T23:43:52.071Z,0
2017-12-01T23:44:53.472Z,0
2017-12-01T23:45:54.876Z,0
2017-12-01T23:46:56.283Z,0
2017-12-01T23:47:57.833Z,0
2017-12-01T23:49:00.130Z,0
2017-12-01T23:50:01.528Z,0
2017-12-01T23:51:02.975Z,0
2017-12-01T23:52:04.374Z,0
2017-12-01T23:53:05.776Z,0
2017-12-01T23:54:07.293Z,0
2017-12-01T23:55:08.693Z,0
2017-12-01T23:56:10.093Z,0
2017-12-01T23:57:11.647Z,0
2017-12-01T23:58:13.051Z,0
2017-12-01T23:59:14.497Z,0
